sensor_id;sensor_type;location;lat;lon;timestamp;P1;durP1;ratioP1;P2;durP2;ratioP2
14992;SDS011;7592;51.088;13.732;2022-08-19T00:02:15;12.53;;;11.60;;
14992;SDS011;7592;51.088;13.732;2022-08-19T00:07:07;12.37;;;11.20;;
14992;SDS011;7592;51.088;13.732;2022-08-19T00:12:00;12.90;;;11.70;;
14992;SDS011;7592;51.088;13.732;2022-08-19T00:16:53;13.23;;;12.03;;
14992;SDS011;7592;51.088;13.732;2022-08-19T00:21:46;13.40;;;12.13;;
14992;SDS011;7592;51.088;13.732;2022-08-19T00:26:39;13.63;;;12.43;;
14992;SDS011;7592;51.088;13.732;2022-08-19T00:31:32;14.30;;;13.20;;
14992;SDS011;7592;51.088;13.732;2022-08-19T00:36:25;14.10;;;12.90;;
14992;SDS011;7592;51.088;13.732;2022-08-19T00:41:19;14.77;;;13.47;;
14992;SDS011;7592;51.088;13.732;2022-08-19T00:46:12;15.10;;;13.77;;
14992;SDS011;7592;51.088;13.732;2022-08-19T00:51:05;14.53;;;13.43;;
14992;SDS011;7592;51.088;13.732;2022-08-19T00:55:58;14.60;;;13.37;;
14992;SDS011;7592;51.088;13.732;2022-08-19T01:00:52;14.90;;;13.70;;
14992;SDS011;7592;51.088;13.732;2022-08-19T01:05:45;15.80;;;14.17;;
14992;SDS011;7592;51.088;13.732;2022-08-19T01:10:42;14.70;;;13.50;;
14992;SDS011;7592;51.088;13.732;2022-08-19T01:15:43;14.80;;;13.33;;
14992;SDS011;7592;51.088;13.732;2022-08-19T01:20:40;15.47;;;14.10;;
14992;SDS011;7592;51.088;13.732;2022-08-19T01:25:35;15.33;;;14.17;;
14992;SDS011;7592;51.088;13.732;2022-08-19T01:30:37;14.10;;;13.03;;
14992;SDS011;7592;51.088;13.732;2022-08-19T01:35:34;16.93;;;15.43;;
14992;SDS011;7592;51.088;13.732;2022-08-19T01:40:28;15.97;;;14.67;;
14992;SDS011;7592;51.088;13.732;2022-08-19T01:45:23;15.07;;;13.97;;
14992;SDS011;7592;51.088;13.732;2022-08-19T01:50:17;15.23;;;13.83;;
14992;SDS011;7592;51.088;13.732;2022-08-19T01:55:12;14.27;;;13.17;;
14992;SDS011;7592;51.088;13.732;2022-08-19T02:00:08;15.63;;;14.33;;
14992;SDS011;7592;51.088;13.732;2022-08-19T02:05:02;15.03;;;13.93;;
14992;SDS011;7592;51.088;13.732;2022-08-19T02:09:55;15.30;;;14.10;;
14992;SDS011;7592;51.088;13.732;2022-08-19T02:14:47;14.50;;;13.37;;
14992;SDS011;7592;51.088;13.732;2022-08-19T02:19:40;15.80;;;14.50;;
14992;SDS011;7592;51.088;13.732;2022-08-19T02:24:32;17.90;;;16.30;;
14992;SDS011;7592;51.088;13.732;2022-08-19T02:29:24;16.50;;;15.03;;
14992;SDS011;7592;51.088;13.732;2022-08-19T02:34:16;17.73;;;16.13;;
14992;SDS011;7592;51.088;13.732;2022-08-19T02:39:09;15.70;;;14.40;;
14992;SDS011;7592;51.088;13.732;2022-08-19T02:44:02;15.00;;;13.83;;
14992;SDS011;7592;51.088;13.732;2022-08-19T02:49:15;15.63;;;14.53;;
14992;SDS011;7592;51.088;13.732;2022-08-19T02:54:08;16.57;;;15.07;;
14992;SDS011;7592;51.088;13.732;2022-08-19T02:59:02;15.23;;;13.93;;
14992;SDS011;7592;51.088;13.732;2022-08-19T03:04:02;15.17;;;14.00;;
14992;SDS011;7592;51.088;13.732;2022-08-19T03:08:56;16.70;;;15.20;;
14992;SDS011;7592;51.088;13.732;2022-08-19T03:13:49;16.73;;;15.33;;
14992;SDS011;7592;51.088;13.732;2022-08-19T03:18:42;16.80;;;15.33;;
14992;SDS011;7592;51.088;13.732;2022-08-19T03:23:35;18.03;;;16.43;;
14992;SDS011;7592;51.088;13.732;2022-08-19T03:28:27;17.93;;;16.43;;
14992;SDS011;7592;51.088;13.732;2022-08-19T03:33:20;17.60;;;16.17;;
14992;SDS011;7592;51.088;13.732;2022-08-19T03:38:19;17.10;;;15.67;;
14992;SDS011;7592;51.088;13.732;2022-08-19T03:43:11;17.40;;;15.90;;
14992;SDS011;7592;51.088;13.732;2022-08-19T03:48:03;16.43;;;14.90;;
14992;SDS011;7592;51.088;13.732;2022-08-19T03:52:55;16.57;;;15.17;;
14992;SDS011;7592;51.088;13.732;2022-08-19T03:57:48;19.13;;;17.63;;
14992;SDS011;7592;51.088;13.732;2022-08-19T04:02:41;16.60;;;15.27;;
14992;SDS011;7592;51.088;13.732;2022-08-19T04:07:49;16.07;;;14.87;;
14992;SDS011;7592;51.088;13.732;2022-08-19T04:12:41;16.73;;;15.40;;
14992;SDS011;7592;51.088;13.732;2022-08-19T04:17:33;17.43;;;16.10;;
14992;SDS011;7592;51.088;13.732;2022-08-19T04:22:26;17.57;;;16.17;;
14992;SDS011;7592;51.088;13.732;2022-08-19T04:27:19;17.33;;;15.60;;
14992;SDS011;7592;51.088;13.732;2022-08-19T04:32:11;18.03;;;16.63;;
14992;SDS011;7592;51.088;13.732;2022-08-19T04:37:06;18.77;;;17.27;;
14992;SDS011;7592;51.088;13.732;2022-08-19T04:42:03;17.97;;;16.50;;
14992;SDS011;7592;51.088;13.732;2022-08-19T04:47:21;18.20;;;16.63;;
14992;SDS011;7592;51.088;13.732;2022-08-19T04:52:33;16.53;;;15.13;;
14992;SDS011;7592;51.088;13.732;2022-08-19T04:57:26;17.40;;;15.90;;
14992;SDS011;7592;51.088;13.732;2022-08-19T05:02:18;16.83;;;15.50;;
14992;SDS011;7592;51.088;13.732;2022-08-19T05:07:11;17.17;;;15.80;;
14992;SDS011;7592;51.088;13.732;2022-08-19T05:12:03;18.77;;;16.83;;
14992;SDS011;7592;51.088;13.732;2022-08-19T05:16:57;18.57;;;17.07;;
14992;SDS011;7592;51.088;13.732;2022-08-19T05:22:09;17.13;;;15.73;;
14992;SDS011;7592;51.088;13.732;2022-08-19T05:27:20;17.53;;;16.23;;
14992;SDS011;7592;51.088;13.732;2022-08-19T05:32:12;31.67;;;22.03;;
14992;SDS011;7592;51.088;13.732;2022-08-19T05:37:05;27.10;;;19.73;;
14992;SDS011;7592;51.088;13.732;2022-08-19T05:42:03;18.73;;;17.10;;
14992;SDS011;7592;51.088;13.732;2022-08-19T05:46:59;18.07;;;16.67;;
14992;SDS011;7592;51.088;13.732;2022-08-19T05:51:52;23.17;;;19.60;;
14992;SDS011;7592;51.088;13.732;2022-08-19T05:56:47;18.07;;;16.37;;
14992;SDS011;7592;51.088;13.732;2022-08-19T06:01:41;19.53;;;17.50;;
14992;SDS011;7592;51.088;13.732;2022-08-19T06:06:37;24.40;;;18.40;;
14992;SDS011;7592;51.088;13.732;2022-08-19T06:11:33;21.53;;;17.47;;
14992;SDS011;7592;51.088;13.732;2022-08-19T06:16:29;11.87;;;10.87;;
14992;SDS011;7592;51.088;13.732;2022-08-19T06:21:23;11.33;;;10.43;;
14992;SDS011;7592;51.088;13.732;2022-08-19T06:26:19;10.57;;;9.57;;
14992;SDS011;7592;51.088;13.732;2022-08-19T06:31:33;10.30;;;9.53;;
14992;SDS011;7592;51.088;13.732;2022-08-19T06:36:27;9.23;;;8.63;;
14992;SDS011;7592;51.088;13.732;2022-08-19T06:41:23;9.93;;;9.10;;
14992;SDS011;7592;51.088;13.732;2022-08-19T06:46:17;10.50;;;9.50;;
14992;SDS011;7592;51.088;13.732;2022-08-19T06:51:11;11.07;;;10.07;;
14992;SDS011;7592;51.088;13.732;2022-08-19T06:56:09;12.40;;;11.33;;
14992;SDS011;7592;51.088;13.732;2022-08-19T07:01:02;15.87;;;14.43;;
14992;SDS011;7592;51.088;13.732;2022-08-19T07:06:06;17.40;;;15.80;;
14992;SDS011;7592;51.088;13.732;2022-08-19T07:11:21;15.90;;;14.70;;
14992;SDS011;7592;51.088;13.732;2022-08-19T07:16:16;17.17;;;15.67;;
14992;SDS011;7592;51.088;13.732;2022-08-19T07:21:21;17.73;;;16.30;;
14992;SDS011;7592;51.088;13.732;2022-08-19T07:26:24;18.27;;;16.77;;
14992;SDS011;7592;51.088;13.732;2022-08-19T07:31:22;17.93;;;16.40;;
14992;SDS011;7592;51.088;13.732;2022-08-19T07:36:17;20.73;;;19.00;;
14992;SDS011;7592;51.088;13.732;2022-08-19T07:41:17;19.93;;;18.13;;
14992;SDS011;7592;51.088;13.732;2022-08-19T07:46:14;20.57;;;18.77;;
14992;SDS011;7592;51.088;13.732;2022-08-19T07:51:09;20.23;;;18.63;;
14992;SDS011;7592;51.088;13.732;2022-08-19T07:56:04;18.80;;;17.30;;
14992;SDS011;7592;51.088;13.732;2022-08-19T08:01:00;19.17;;;17.53;;
14992;SDS011;7592;51.088;13.732;2022-08-19T08:05:54;18.50;;;17.00;;
14992;SDS011;7592;51.088;13.732;2022-08-19T08:11:11;18.43;;;16.83;;
14992;SDS011;7592;51.088;13.732;2022-08-19T08:16:06;19.00;;;17.50;;
14992;SDS011;7592;51.088;13.732;2022-08-19T08:21:04;17.47;;;16.17;;
14992;SDS011;7592;51.088;13.732;2022-08-19T08:25:57;18.10;;;16.60;;
14992;SDS011;7592;51.088;13.732;2022-08-19T08:30:50;17.70;;;16.20;;
14992;SDS011;7592;51.088;13.732;2022-08-19T08:35:42;14.60;;;13.40;;
14992;SDS011;7592;51.088;13.732;2022-08-19T08:45:35;14.13;;;13.03;;
14992;SDS011;7592;51.088;13.732;2022-08-19T08:50:44;13.13;;;11.93;;
14992;SDS011;7592;51.088;13.732;2022-08-19T08:55:40;12.87;;;11.77;;
14992;SDS011;7592;51.088;13.732;2022-08-19T09:00:35;18.97;;;15.13;;
14992;SDS011;7592;51.088;13.732;2022-08-19T09:05:41;13.60;;;12.60;;
14992;SDS011;7592;51.088;13.732;2022-08-19T09:10:49;13.67;;;12.60;;
14992;SDS011;7592;51.088;13.732;2022-08-19T09:15:51;12.93;;;12.03;;
14992;SDS011;7592;51.088;13.732;2022-08-19T09:20:50;13.67;;;12.60;;
14992;SDS011;7592;51.088;13.732;2022-08-19T09:25:43;13.30;;;11.90;;
14992;SDS011;7592;51.088;13.732;2022-08-19T09:30:39;12.60;;;11.53;;
14992;SDS011;7592;51.088;13.732;2022-08-19T09:35:33;12.73;;;11.77;;
14992;SDS011;7592;51.088;13.732;2022-08-19T09:40:43;14.43;;;13.33;;
14992;SDS011;7592;51.088;13.732;2022-08-19T09:45:36;12.67;;;10.87;;
14992;SDS011;7592;51.088;13.732;2022-08-19T09:50:29;12.17;;;11.20;;
14992;SDS011;7592;51.088;13.732;2022-08-19T09:55:25;12.03;;;10.97;;
14992;SDS011;7592;51.088;13.732;2022-08-19T10:00:23;11.93;;;11.03;;
14992;SDS011;7592;51.088;13.732;2022-08-19T10:05:15;11.20;;;10.20;;
14992;SDS011;7592;51.088;13.732;2022-08-19T10:10:26;10.33;;;9.50;;
14992;SDS011;7592;51.088;13.732;2022-08-19T10:15:20;10.43;;;9.37;;
14992;SDS011;7592;51.088;13.732;2022-08-19T10:20:19;8.77;;;8.17;;
14992;SDS011;7592;51.088;13.732;2022-08-19T10:25:13;7.80;;;7.23;;
14992;SDS011;7592;51.088;13.732;2022-08-19T10:30:08;7.53;;;7.03;;
14992;SDS011;7592;51.088;13.732;2022-08-19T10:35:04;9.27;;;8.37;;
14992;SDS011;7592;51.088;13.732;2022-08-19T10:39:59;8.53;;;7.93;;
14992;SDS011;7592;51.088;13.732;2022-08-19T10:44:53;8.87;;;8.17;;
14992;SDS011;7592;51.088;13.732;2022-08-19T10:49:48;8.63;;;7.97;;
14992;SDS011;7592;51.088;13.732;2022-08-19T10:55:03;6.53;;;6.13;;
14992;SDS011;7592;51.088;13.732;2022-08-19T11:00:20;8.77;;;7.97;;
14992;SDS011;7592;51.088;13.732;2022-08-19T11:05:14;6.60;;;6.10;;
14992;SDS011;7592;51.088;13.732;2022-08-19T11:10:09;7.37;;;6.77;;
14992;SDS011;7592;51.088;13.732;2022-08-19T11:15:03;8.60;;;7.90;;
14992;SDS011;7592;51.088;13.732;2022-08-19T11:19:57;10.27;;;9.47;;
14992;SDS011;7592;51.088;13.732;2022-08-19T11:24:49;10.17;;;9.23;;
14992;SDS011;7592;51.088;13.732;2022-08-19T11:29:41;9.73;;;8.87;;
14992;SDS011;7592;51.088;13.732;2022-08-19T11:34:34;10.67;;;9.77;;
14992;SDS011;7592;51.088;13.732;2022-08-19T11:39:27;9.77;;;9.07;;
14992;SDS011;7592;51.088;13.732;2022-08-19T11:44:22;9.73;;;9.03;;
14992;SDS011;7592;51.088;13.732;2022-08-19T11:49:18;10.43;;;9.60;;
14992;SDS011;7592;51.088;13.732;2022-08-19T11:54:12;9.60;;;9.00;;
14992;SDS011;7592;51.088;13.732;2022-08-19T11:59:06;10.20;;;9.50;;
14992;SDS011;7592;51.088;13.732;2022-08-19T12:04:04;11.10;;;10.10;;
14992;SDS011;7592;51.088;13.732;2022-08-19T12:08:58;12.83;;;11.93;;
14992;SDS011;7592;51.088;13.732;2022-08-19T12:13:52;19.00;;;15.93;;
14992;SDS011;7592;51.088;13.732;2022-08-19T12:18:45;20.30;;;18.43;;
14992;SDS011;7592;51.088;13.732;2022-08-19T12:23:38;16.10;;;14.80;;
14992;SDS011;7592;51.088;13.732;2022-08-19T12:28:32;17.93;;;16.43;;
14992;SDS011;7592;51.088;13.732;2022-08-19T14:36:06;24.13;;;22.13;;
14992;SDS011;7592;51.088;13.732;2022-08-19T14:41:08;23.70;;;21.70;;
14992;SDS011;7592;51.088;13.732;2022-08-19T14:46:04;26.33;;;23.83;;
14992;SDS011;7592;51.088;13.732;2022-08-19T14:50:56;29.87;;;24.67;;
14992;SDS011;7592;51.088;13.732;2022-08-19T14:55:48;25.10;;;23.00;;
14992;SDS011;7592;51.088;13.732;2022-08-19T15:00:41;23.23;;;21.07;;
14992;SDS011;7592;51.088;13.732;2022-08-19T15:05:33;23.20;;;21.10;;
14992;SDS011;7592;51.088;13.732;2022-08-19T15:10:27;24.63;;;22.60;;
14992;SDS011;7592;51.088;13.732;2022-08-19T15:15:19;25.70;;;23.50;;
14992;SDS011;7592;51.088;13.732;2022-08-19T15:20:16;25.60;;;23.60;;
14992;SDS011;7592;51.088;13.732;2022-08-19T15:25:11;25.10;;;22.97;;
14992;SDS011;7592;51.088;13.732;2022-08-19T15:30:08;35.07;;;28.47;;
14992;SDS011;7592;51.088;13.732;2022-08-19T15:35:01;25.60;;;23.30;;
14992;SDS011;7592;51.088;13.732;2022-08-19T15:39:56;25.20;;;22.80;;
14992;SDS011;7592;51.088;13.732;2022-08-19T15:44:49;22.80;;;20.63;;
14992;SDS011;7592;51.088;13.732;2022-08-19T15:49:44;24.90;;;22.63;;
14992;SDS011;7592;51.088;13.732;2022-08-19T15:54:37;22.53;;;20.63;;
14992;SDS011;7592;51.088;13.732;2022-08-19T15:59:32;26.00;;;23.57;;
14992;SDS011;7592;51.088;13.732;2022-08-19T16:04:44;24.37;;;21.87;;
14992;SDS011;7592;51.088;13.732;2022-08-19T16:09:55;25.67;;;23.37;;
14992;SDS011;7592;51.088;13.732;2022-08-19T16:14:47;22.37;;;20.37;;
14992;SDS011;7592;51.088;13.732;2022-08-19T16:19:39;19.33;;;17.83;;
14992;SDS011;7592;51.088;13.732;2022-08-19T16:24:32;20.73;;;19.00;;
14992;SDS011;7592;51.088;13.732;2022-08-19T16:29:24;21.30;;;19.53;;
14992;SDS011;7592;51.088;13.732;2022-08-19T16:34:29;20.33;;;18.63;;
14992;SDS011;7592;51.088;13.732;2022-08-19T16:39:24;18.90;;;17.33;;
14992;SDS011;7592;51.088;13.732;2022-08-19T16:44:17;19.57;;;17.87;;
14992;SDS011;7592;51.088;13.732;2022-08-19T16:49:11;22.90;;;21.10;;
14992;SDS011;7592;51.088;13.732;2022-08-19T16:54:05;20.97;;;19.07;;
14992;SDS011;7592;51.088;13.732;2022-08-19T16:58:58;21.23;;;19.47;;
14992;SDS011;7592;51.088;13.732;2022-08-19T17:03:53;21.23;;;19.30;;
14992;SDS011;7592;51.088;13.732;2022-08-19T17:08:48;21.57;;;19.83;;
14992;SDS011;7592;51.088;13.732;2022-08-19T17:13:41;18.83;;;17.33;;
14992;SDS011;7592;51.088;13.732;2022-08-19T17:18:38;20.20;;;18.30;;
14992;SDS011;7592;51.088;13.732;2022-08-19T17:23:30;20.37;;;18.43;;
14992;SDS011;7592;51.088;13.732;2022-08-19T17:28:35;19.03;;;17.30;;
14992;SDS011;7592;51.088;13.732;2022-08-19T17:33:28;18.43;;;16.93;;
14992;SDS011;7592;51.088;13.732;2022-08-19T17:38:20;17.53;;;16.03;;
14992;SDS011;7592;51.088;13.732;2022-08-19T17:43:17;17.27;;;15.67;;
14992;SDS011;7592;51.088;13.732;2022-08-19T17:48:23;16.27;;;15.07;;
14992;SDS011;7592;51.088;13.732;2022-08-19T17:53:18;18.30;;;16.57;;
14992;SDS011;7592;51.088;13.732;2022-08-19T17:58:10;16.80;;;15.57;;
14992;SDS011;7592;51.088;13.732;2022-08-19T18:03:04;16.80;;;15.40;;
14992;SDS011;7592;51.088;13.732;2022-08-19T18:07:57;19.47;;;17.63;;
14992;SDS011;7592;51.088;13.732;2022-08-19T18:12:50;18.30;;;16.87;;
14992;SDS011;7592;51.088;13.732;2022-08-19T18:17:44;18.07;;;16.57;;
14992;SDS011;7592;51.088;13.732;2022-08-19T18:22:38;18.87;;;17.10;;
14992;SDS011;7592;51.088;13.732;2022-08-19T18:27:33;16.93;;;15.40;;
14992;SDS011;7592;51.088;13.732;2022-08-19T18:32:26;17.63;;;16.20;;
14992;SDS011;7592;51.088;13.732;2022-08-19T18:37:24;19.23;;;17.53;;
14992;SDS011;7592;51.088;13.732;2022-08-19T18:42:17;17.97;;;16.40;;
14992;SDS011;7592;51.088;13.732;2022-08-19T18:47:28;16.93;;;15.47;;
14992;SDS011;7592;51.088;13.732;2022-08-19T18:52:39;18.37;;;16.53;;
14992;SDS011;7592;51.088;13.732;2022-08-19T18:57:32;21.00;;;19.10;;
14992;SDS011;7592;51.088;13.732;2022-08-19T19:02:24;16.33;;;14.80;;
14992;SDS011;7592;51.088;13.732;2022-08-19T19:07:18;21.90;;;19.77;;
14992;SDS011;7592;51.088;13.732;2022-08-19T19:12:11;23.23;;;21.00;;
14992;SDS011;7592;51.088;13.732;2022-08-19T19:17:05;22.77;;;20.83;;
14992;SDS011;7592;51.088;13.732;2022-08-19T19:22:03;23.80;;;21.37;;
14992;SDS011;7592;51.088;13.732;2022-08-19T19:26:56;22.77;;;20.80;;
14992;SDS011;7592;51.088;13.732;2022-08-19T19:31:52;23.60;;;21.60;;
14992;SDS011;7592;51.088;13.732;2022-08-19T19:36:47;88.43;;;48.50;;
14992;SDS011;7592;51.088;13.732;2022-08-19T19:41:42;27.93;;;25.13;;
14992;SDS011;7592;51.088;13.732;2022-08-19T19:46:35;26.80;;;24.23;;
14992;SDS011;7592;51.088;13.732;2022-08-19T19:51:28;28.03;;;25.13;;
14992;SDS011;7592;51.088;13.732;2022-08-19T19:56:28;26.70;;;23.83;;
14992;SDS011;7592;51.088;13.732;2022-08-19T20:01:21;27.83;;;25.27;;
14992;SDS011;7592;51.088;13.732;2022-08-19T20:06:18;23.17;;;21.20;;
14992;SDS011;7592;51.088;13.732;2022-08-19T20:11:11;25.03;;;22.80;;
14992;SDS011;7592;51.088;13.732;2022-08-19T20:16:08;24.80;;;22.43;;
14992;SDS011;7592;51.088;13.732;2022-08-19T20:21:01;24.40;;;22.40;;
14992;SDS011;7592;51.088;13.732;2022-08-19T20:25:54;26.23;;;23.87;;
14992;SDS011;7592;51.088;13.732;2022-08-19T20:30:47;26.27;;;24.00;;
14992;SDS011;7592;51.088;13.732;2022-08-19T20:35:41;27.47;;;25.07;;
14992;SDS011;7592;51.088;13.732;2022-08-19T20:40:34;24.30;;;22.13;;
14992;SDS011;7592;51.088;13.732;2022-08-19T20:45:28;22.47;;;20.40;;
14992;SDS011;7592;51.088;13.732;2022-08-19T20:50:24;25.10;;;22.80;;
14992;SDS011;7592;51.088;13.732;2022-08-19T20:55:20;24.13;;;21.97;;
14992;SDS011;7592;51.088;13.732;2022-08-19T21:00:13;24.37;;;22.07;;
14992;SDS011;7592;51.088;13.732;2022-08-19T21:05:08;20.60;;;18.70;;
14992;SDS011;7592;51.088;13.732;2022-08-19T21:10:00;20.47;;;18.60;;
14992;SDS011;7592;51.088;13.732;2022-08-19T21:14:55;20.77;;;18.73;;
14992;SDS011;7592;51.088;13.732;2022-08-19T21:19:47;20.90;;;18.83;;
14992;SDS011;7592;51.088;13.732;2022-08-19T21:24:40;19.47;;;17.70;;
14992;SDS011;7592;51.088;13.732;2022-08-19T21:29:33;18.57;;;16.97;;
14992;SDS011;7592;51.088;13.732;2022-08-19T21:34:28;18.90;;;16.93;;
14992;SDS011;7592;51.088;13.732;2022-08-19T21:39:21;19.47;;;17.77;;
14992;SDS011;7592;51.088;13.732;2022-08-19T21:44:13;21.07;;;18.90;;
14992;SDS011;7592;51.088;13.732;2022-08-19T21:49:05;21.43;;;19.57;;
14992;SDS011;7592;51.088;13.732;2022-08-19T21:53:58;21.73;;;19.57;;
14992;SDS011;7592;51.088;13.732;2022-08-19T21:58:50;21.10;;;19.00;;
14992;SDS011;7592;51.088;13.732;2022-08-19T22:03:43;20.80;;;19.10;;
14992;SDS011;7592;51.088;13.732;2022-08-19T22:08:35;20.70;;;18.73;;
14992;SDS011;7592;51.088;13.732;2022-08-19T22:13:29;19.50;;;17.70;;
14992;SDS011;7592;51.088;13.732;2022-08-19T22:18:30;19.73;;;17.80;;
14992;SDS011;7592;51.088;13.732;2022-08-19T22:23:25;22.27;;;20.30;;
14992;SDS011;7592;51.088;13.732;2022-08-19T22:28:17;22.63;;;20.20;;
14992;SDS011;7592;51.088;13.732;2022-08-19T22:33:19;20.77;;;18.57;;
14992;SDS011;7592;51.088;13.732;2022-08-19T22:38:13;18.67;;;16.97;;
14992;SDS011;7592;51.088;13.732;2022-08-19T22:43:10;19.20;;;17.47;;
14992;SDS011;7592;51.088;13.732;2022-08-19T22:48:16;22.47;;;19.20;;
14992;SDS011;7592;51.088;13.732;2022-08-19T22:53:09;17.50;;;15.90;;
14992;SDS011;7592;51.088;13.732;2022-08-19T22:58:03;17.93;;;16.23;;
14992;SDS011;7592;51.088;13.732;2022-08-19T23:02:56;17.83;;;16.17;;
14992;SDS011;7592;51.088;13.732;2022-08-19T23:07:50;20.10;;;18.30;;
14992;SDS011;7592;51.088;13.732;2022-08-19T23:12:45;17.90;;;16.17;;
14992;SDS011;7592;51.088;13.732;2022-08-19T23:17:38;15.80;;;14.40;;
14992;SDS011;7592;51.088;13.732;2022-08-19T23:22:31;16.80;;;15.37;;
14992;SDS011;7592;51.088;13.732;2022-08-19T23:27:24;17.87;;;16.17;;
14992;SDS011;7592;51.088;13.732;2022-08-19T23:32:34;17.73;;;15.70;;
14992;SDS011;7592;51.088;13.732;2022-08-19T23:37:28;18.17;;;16.40;;
14992;SDS011;7592;51.088;13.732;2022-08-19T23:42:20;18.00;;;16.33;;
14992;SDS011;7592;51.088;13.732;2022-08-19T23:47:16;17.27;;;15.70;;
14992;SDS011;7592;51.088;13.732;2022-08-19T23:52:08;16.33;;;14.90;;
14992;SDS011;7592;51.088;13.732;2022-08-19T23:57:01;19.60;;;17.63;;
